createdAt,value
2023-04-30T00:00:30.511Z,5.70
2023-04-30T00:02:58.192Z,5.83
2023-04-30T00:05:26.089Z,5.90
2023-04-30T00:07:53.777Z,6.00
2023-04-30T00:10:21.458Z,6.20
2023-04-30T00:12:50.566Z,5.73
2023-04-30T00:15:18.317Z,6.17
2023-04-30T00:17:46.529Z,6.43
2023-04-30T00:20:16.097Z,6.60
2023-04-30T00:22:43.902Z,6.10
2023-04-30T00:25:11.681Z,6.40
2023-04-30T00:27:40.865Z,6.73
2023-04-30T00:30:11.587Z,6.93
2023-04-30T00:32:39.288Z,6.67
2023-04-30T00:35:07.742Z,7.27
2023-04-30T00:37:35.410Z,7.13
2023-04-30T00:40:03.241Z,7.70
2023-04-30T00:42:31.046Z,7.27
2023-04-30T00:44:58.949Z,6.63
2023-04-30T00:47:28.125Z,6.80
2023-04-30T00:49:56.287Z,7.40
2023-04-30T00:52:24.589Z,6.70
2023-04-30T00:54:53.893Z,7.13
2023-04-30T00:57:22.216Z,6.73
2023-04-30T00:59:50.270Z,6.80
2023-04-30T01:02:18.391Z,7.47
2023-04-30T01:04:48.030Z,7.63
2023-04-30T01:07:15.894Z,6.90
2023-04-30T01:09:43.707Z,7.30
2023-04-30T01:12:18.029Z,6.77
2023-04-30T01:14:58.163Z,7.67
2023-04-30T01:17:33.565Z,7.67
2023-04-30T01:20:03.963Z,7.83
2023-04-30T01:22:38.292Z,7.27
2023-04-30T01:25:26.676Z,8.17
2023-04-30T01:28:15.813Z,8.17
2023-04-30T01:30:46.400Z,8.40
2023-04-30T01:33:14.684Z,9.20
2023-04-30T01:36:08.784Z,8.70
2023-04-30T01:38:52.128Z,9.03
2023-04-30T01:41:30.983Z,9.03
2023-04-30T01:44:11.595Z,9.10
2023-04-30T01:46:39.527Z,8.40
2023-04-30T01:49:16.974Z,8.33
2023-04-30T01:51:45.897Z,9.10
2023-04-30T01:54:21.295Z,8.47
2023-04-30T01:56:54.996Z,7.80
2023-04-30T01:59:24.696Z,8.13
2023-04-30T02:01:53.993Z,7.90
2023-04-30T02:04:22.016Z,7.57
2023-04-30T02:06:49.751Z,7.60
2023-04-30T02:09:17.468Z,7.30
2023-04-30T02:11:45.321Z,7.80
2023-04-30T02:14:13.088Z,7.77
2023-04-30T02:16:42.881Z,7.97
2023-04-30T02:19:11.153Z,7.50
2023-04-30T02:21:38.937Z,7.43
2023-04-30T02:24:07.482Z,7.77
2023-04-30T02:26:35.302Z,7.47
2023-04-30T02:29:03.196Z,7.53
2023-04-30T02:31:30.940Z,7.77
2023-04-30T02:34:00.104Z,7.60
2023-04-30T02:36:28.303Z,7.63
2023-04-30T02:38:56.154Z,8.37
2023-04-30T02:41:24.071Z,8.50
2023-04-30T02:43:52.794Z,8.67
2023-04-30T02:46:20.944Z,8.10
2023-04-30T02:48:48.647Z,8.30
2023-04-30T02:51:18.192Z,9.00
2023-04-30T02:53:46.001Z,7.77
2023-04-30T02:56:14.022Z,9.00
2023-04-30T02:58:42.350Z,8.27
2023-04-30T03:01:10.050Z,8.37
2023-04-30T03:03:37.866Z,9.30
2023-04-30T03:06:06.167Z,8.33
2023-04-30T03:08:35.452Z,9.17
2023-04-30T03:11:03.359Z,8.70
2023-04-30T03:13:31.141Z,8.23
2023-04-30T03:16:00.222Z,9.90
2023-04-30T03:18:28.342Z,8.80
2023-04-30T03:20:56.119Z,9.07
2023-04-30T03:23:23.841Z,9.00
2023-04-30T03:25:53.525Z,8.10
2023-04-30T03:28:21.726Z,9.23
2023-04-30T03:30:49.705Z,8.80
2023-04-30T03:33:17.495Z,9.53
2023-04-30T03:35:45.231Z,8.97
2023-04-30T03:38:13.128Z,9.30
2023-04-30T03:40:40.928Z,8.70
2023-04-30T03:43:10.165Z,9.73
2023-04-30T03:45:37.915Z,8.53
2023-04-30T03:48:06.263Z,9.13
2023-04-30T03:50:34.093Z,9.07
2023-04-30T03:53:02.102Z,9.33
2023-04-30T03:55:29.907Z,9.37
2023-04-30T03:57:58.443Z,8.87
2023-04-30T04:00:27.508Z,8.73
2023-04-30T04:02:56.040Z,9.30
2023-04-30T04:05:23.919Z,9.10
2023-04-30T04:07:51.598Z,8.97
2023-04-30T04:10:19.521Z,8.80
2023-04-30T04:12:50.271Z,10.23
2023-04-30T04:15:18.548Z,9.23
2023-04-30T04:17:48.121Z,9.17
2023-04-30T04:20:20.758Z,10.03
2023-04-30T04:22:50.554Z,9.70
2023-04-30T04:25:19.162Z,10.10
2023-04-30T04:27:47.451Z,9.83
2023-04-30T04:30:16.604Z,9.60
2023-04-30T04:32:53.818Z,9.23
2023-04-30T04:35:24.516Z,10.27
2023-04-30T04:37:56.285Z,10.90
2023-04-30T04:40:23.986Z,10.60
2023-04-30T04:42:52.431Z,9.30
2023-04-30T04:45:21.900Z,10.60
2023-04-30T04:47:50.394Z,11.67
2023-04-30T04:50:19.222Z,10.83
2023-04-30T04:52:48.401Z,10.87
2023-04-30T04:55:19.084Z,10.67
2023-04-30T04:57:50.261Z,10.43
2023-04-30T05:00:19.262Z,10.90
2023-04-30T05:02:48.609Z,10.57
2023-04-30T05:05:18.578Z,10.27
2023-04-30T05:07:52.716Z,11.07
2023-04-30T05:10:21.806Z,10.17
2023-04-30T05:12:50.322Z,10.80
2023-04-30T05:15:18.174Z,9.90
2023-04-30T05:17:48.564Z,9.80
2023-04-30T05:20:16.370Z,10.00
2023-04-30T05:22:46.378Z,10.63
2023-04-30T05:25:17.760Z,10.30
2023-04-30T05:27:45.517Z,9.97
2023-04-30T05:30:15.707Z,9.70
2023-04-30T05:32:50.712Z,9.80
2023-04-30T05:35:18.802Z,10.20
2023-04-30T05:37:47.544Z,9.43
2023-04-30T05:40:16.994Z,9.97
2023-04-30T05:42:46.411Z,10.23
2023-04-30T05:45:17.542Z,11.17
2023-04-30T05:47:47.395Z,9.93
2023-04-30T05:50:16.635Z,9.77
2023-04-30T05:52:44.955Z,10.03
2023-04-30T05:55:13.064Z,8.97
2023-04-30T05:57:46.042Z,9.17
2023-04-30T06:00:15.916Z,9.57
2023-04-30T06:02:44.060Z,9.43
2023-04-30T06:05:16.382Z,10.30
2023-04-30T06:07:45.390Z,9.23
2023-04-30T06:10:13.567Z,8.67
2023-04-30T06:12:43.017Z,8.77
2023-04-30T06:15:11.263Z,10.00
2023-04-30T06:17:39.448Z,8.93
2023-04-30T06:20:08.654Z,9.17
2023-04-30T06:22:36.761Z,8.53
2023-04-30T06:25:04.851Z,8.63
2023-04-30T06:27:32.994Z,8.57
2023-04-30T06:30:02.031Z,8.70
2023-04-30T06:32:29.959Z,8.20
2023-04-30T06:34:57.702Z,8.17
2023-04-30T06:37:25.475Z,7.57
2023-04-30T06:39:53.810Z,8.20
2023-04-30T06:42:21.873Z,7.53
2023-04-30T06:44:49.553Z,7.57
2023-04-30T06:47:18.653Z,7.43
2023-04-30T06:49:46.315Z,7.43
2023-04-30T06:52:14.089Z,7.83
2023-04-30T06:54:42.952Z,7.87
2023-04-30T06:57:10.709Z,6.50
2023-04-30T06:59:39.623Z,6.30
2023-04-30T07:02:08.019Z,4.90
2023-04-30T07:04:37.225Z,4.97
2023-04-30T07:07:05.369Z,5.28
2023-04-30T07:09:33.545Z,4.70
2023-04-30T07:12:01.682Z,5.35
2023-04-30T07:14:29.801Z,5.10
2023-04-30T07:16:59.446Z,4.57
2023-04-30T07:19:32.615Z,4.88
2023-04-30T07:22:02.111Z,4.78
2023-04-30T07:24:30.203Z,3.63
2023-04-30T07:27:05.344Z,4.40
2023-04-30T07:29:34.114Z,4.55
2023-04-30T07:32:03.391Z,4.45
2023-04-30T07:34:31.241Z,3.63
2023-04-30T07:36:58.887Z,3.05
2023-04-30T07:39:28.223Z,3.80
2023-04-30T07:41:55.973Z,3.75
2023-04-30T07:44:23.773Z,3.25
2023-04-30T07:46:51.810Z,3.70
2023-04-30T07:49:19.835Z,2.95
2023-04-30T07:51:47.608Z,2.90
2023-04-30T07:54:15.747Z,3.42
2023-04-30T07:56:45.162Z,3.28
2023-04-30T07:59:12.961Z,3.53
2023-04-30T08:01:41.259Z,3.47
2023-04-30T08:04:09.749Z,3.28
2023-04-30T08:06:37.649Z,3.63
2023-04-30T08:09:05.695Z,3.80
2023-04-30T08:11:34.548Z,3.40
2023-04-30T08:14:04.669Z,2.50
2023-04-30T08:16:32.582Z,3.00
2023-04-30T08:19:01.556Z,2.92
2023-04-30T08:21:29.737Z,2.50
2023-04-30T08:23:58.204Z,1.90
2023-04-30T08:26:27.211Z,2.03
2023-04-30T08:28:55.350Z,1.92
2023-04-30T08:31:24.776Z,2.22
2023-04-30T08:33:58.473Z,2.38
2023-04-30T08:36:27.640Z,2.45
2023-04-30T08:38:55.746Z,2.50
2023-04-30T08:41:29.397Z,2.08
2023-04-30T08:44:00.936Z,1.80
2023-04-30T08:46:32.952Z,1.40
2023-04-30T08:49:04.336Z,1.30
2023-04-30T08:51:33.793Z,1.50
2023-04-30T08:54:01.639Z,1.55
2023-04-30T08:56:32.277Z,1.40
2023-04-30T08:58:59.933Z,1.20
2023-04-30T09:01:33.940Z,1.13
2023-04-30T09:04:04.401Z,1.05
2023-04-30T09:06:32.395Z,1.40
2023-04-30T09:09:10.747Z,1.42
2023-04-30T09:11:39.622Z,1.55
2023-04-30T09:14:10.964Z,1.17
2023-04-30T09:16:50.735Z,1.40
2023-04-30T09:19:29.287Z,1.20
2023-04-30T09:21:57.578Z,1.10
2023-04-30T09:24:25.883Z,1.35
2023-04-30T09:26:55.131Z,1.50
2023-04-30T09:29:22.828Z,1.27
2023-04-30T09:31:54.463Z,1.00
2023-04-30T09:34:35.190Z,1.08
2023-04-30T09:37:04.149Z,1.00
2023-04-30T09:39:34.031Z,1.10
2023-04-30T09:42:11.486Z,1.10
2023-04-30T09:44:41.671Z,1.33
2023-04-30T09:47:14.791Z,1.13
2023-04-30T09:49:44.505Z,1.20
2023-04-30T09:52:12.833Z,1.40
2023-04-30T09:54:42.161Z,1.10
2023-04-30T09:57:12.419Z,1.10
2023-04-30T09:59:44.954Z,1.00
2023-04-30T10:02:16.689Z,1.10
2023-04-30T10:04:46.128Z,1.40
2023-04-30T10:07:17.181Z,1.00
2023-04-30T10:09:51.818Z,1.15
2023-04-30T10:12:25.628Z,1.15
2023-04-30T10:14:58.524Z,1.30
2023-04-30T10:17:32.256Z,1.17
2023-04-30T10:20:05.845Z,1.15
2023-04-30T10:22:35.937Z,0.93
2023-04-30T10:25:05.849Z,1.35
2023-04-30T10:27:34.212Z,1.20
2023-04-30T10:30:03.781Z,1.40
2023-04-30T10:32:39.022Z,1.40
2023-04-30T10:35:13.467Z,1.45
2023-04-30T10:37:47.462Z,1.48
2023-04-30T10:40:15.314Z,1.42
2023-04-30T10:42:47.415Z,1.40
2023-04-30T10:45:17.329Z,1.27
2023-04-30T10:47:48.831Z,1.50
2023-04-30T10:50:16.686Z,1.40
2023-04-30T10:52:48.681Z,1.63
2023-04-30T10:55:21.626Z,1.17
2023-04-30T10:57:51.591Z,1.10
2023-04-30T11:00:20.951Z,1.38
2023-04-30T11:02:50.311Z,1.25
2023-04-30T11:05:19.569Z,1.17
2023-04-30T11:07:50.054Z,1.10
2023-04-30T11:10:18.525Z,1.10
2023-04-30T11:12:50.728Z,1.02
2023-04-30T11:15:20.025Z,1.08
2023-04-30T11:17:50.727Z,1.10
2023-04-30T11:20:21.532Z,1.05
2023-04-30T11:22:49.465Z,0.90
2023-04-30T11:25:23.306Z,0.85
2023-04-30T11:28:02.946Z,1.00
2023-04-30T11:30:32.102Z,1.10
2023-04-30T11:33:02.010Z,1.10
2023-04-30T11:35:30.182Z,0.90
2023-04-30T11:37:59.246Z,0.90
2023-04-30T11:40:27.814Z,1.00
2023-04-30T11:42:57.399Z,1.10
2023-04-30T11:45:27.273Z,0.90
2023-04-30T11:47:57.014Z,0.80
2023-04-30T11:50:28.900Z,0.75
2023-04-30T11:52:59.481Z,0.90
2023-04-30T11:55:29.945Z,0.70
2023-04-30T11:58:00.729Z,0.65
2023-04-30T12:00:33.421Z,0.60
2023-04-30T12:03:04.060Z,0.70
2023-04-30T12:05:31.918Z,0.60
2023-04-30T12:08:04.396Z,0.80
2023-04-30T12:10:32.902Z,0.80
2023-04-30T12:13:00.617Z,0.60
2023-04-30T12:15:30.595Z,0.60
2023-04-30T12:17:59.629Z,0.70
2023-04-30T12:20:29.978Z,0.70
2023-04-30T12:22:58.785Z,0.63
2023-04-30T12:25:29.685Z,0.70
2023-04-30T12:28:00.412Z,0.75
2023-04-30T12:30:30.724Z,0.60
2023-04-30T12:33:00.373Z,0.60
2023-04-30T12:35:31.123Z,0.60
2023-04-30T12:38:03.554Z,0.60
2023-04-30T12:40:32.300Z,0.60
2023-04-30T12:43:05.635Z,0.50
2023-04-30T12:45:51.285Z,0.57
2023-04-30T12:48:20.515Z,0.60
2023-04-30T12:50:55.597Z,1.05
2023-04-30T12:53:24.500Z,0.68
2023-04-30T12:56:14.483Z,1.10
2023-04-30T12:58:45.454Z,0.70
2023-04-30T13:01:18.436Z,1.05
2023-04-30T13:03:48.712Z,0.70
2023-04-30T13:06:16.612Z,0.60
2023-04-30T13:08:57.347Z,0.63
2023-04-30T13:11:27.790Z,0.65
2023-04-30T13:13:56.590Z,0.80
2023-04-30T13:16:26.267Z,0.80
2023-04-30T13:18:54.323Z,0.70
2023-04-30T13:21:22.156Z,0.80
2023-04-30T13:23:53.393Z,0.80
2023-04-30T13:26:24.128Z,0.90
2023-04-30T13:28:51.943Z,0.70
2023-04-30T13:31:19.969Z,0.60
2023-04-30T13:33:49.369Z,0.60
2023-04-30T13:36:18.364Z,0.55
2023-04-30T13:38:48.673Z,0.60
2023-04-30T13:41:17.794Z,0.65
2023-04-30T13:43:47.973Z,0.60
2023-04-30T13:46:16.724Z,0.70
2023-04-30T13:48:48.103Z,1.00
2023-04-30T13:51:17.199Z,0.80
2023-04-30T13:53:44.997Z,0.52
2023-04-30T13:56:12.765Z,0.60
2023-04-30T13:58:44.780Z,0.52
2023-04-30T14:01:13.891Z,0.55
2023-04-30T14:03:42.181Z,0.65
2023-04-30T14:06:10.567Z,0.70
2023-04-30T14:08:39.755Z,0.85
2023-04-30T14:11:07.621Z,0.65
2023-04-30T14:13:35.855Z,0.60
2023-04-30T14:16:04.158Z,0.82
2023-04-30T14:18:34.463Z,0.80
2023-04-30T14:21:02.173Z,0.60
2023-04-30T14:23:29.975Z,0.50
2023-04-30T14:26:00.366Z,0.80
2023-04-30T14:28:29.772Z,0.90
2023-04-30T14:30:57.783Z,0.85
2023-04-30T14:33:26.721Z,0.50
2023-04-30T14:35:55.763Z,0.60
2023-04-30T14:38:23.751Z,0.57
2023-04-30T14:40:51.754Z,0.57
2023-04-30T14:43:21.437Z,0.60
2023-04-30T14:45:49.342Z,0.73
2023-04-30T14:48:18.488Z,0.80
2023-04-30T14:50:46.462Z,0.70
2023-04-30T14:53:14.697Z,0.70
2023-04-30T14:55:42.638Z,0.70
2023-04-30T14:58:10.439Z,0.70
2023-04-30T15:00:39.775Z,0.75
2023-04-30T15:03:07.789Z,0.60
2023-04-30T15:05:35.748Z,0.68
2023-04-30T15:08:03.512Z,0.80
2023-04-30T15:10:31.606Z,0.60
2023-04-30T15:12:59.355Z,0.40
2023-04-30T15:15:29.122Z,0.60
2023-04-30T15:17:59.216Z,0.63
2023-04-30T15:20:27.912Z,0.70
2023-04-30T15:22:55.842Z,0.50
2023-04-30T15:25:24.201Z,0.55
2023-04-30T15:27:52.108Z,0.60
2023-04-30T15:30:21.516Z,0.60
2023-04-30T15:32:50.402Z,0.60
2023-04-30T15:35:20.012Z,0.60
2023-04-30T15:37:47.777Z,0.70
2023-04-30T15:40:16.015Z,0.52
2023-04-30T15:42:44.129Z,0.68
2023-04-30T15:45:12.370Z,0.70
2023-04-30T15:47:40.363Z,0.60
2023-04-30T15:50:09.796Z,0.70
2023-04-30T15:52:40.169Z,0.80
2023-04-30T15:55:09.164Z,0.80
2023-04-30T15:57:37.211Z,0.80
2023-04-30T16:00:05.578Z,0.80
2023-04-30T16:02:33.310Z,1.02
2023-04-30T16:05:01.309Z,0.70
2023-04-30T16:07:32.109Z,1.00
2023-04-30T16:10:02.189Z,0.80
2023-04-30T16:12:30.182Z,0.95
2023-04-30T16:14:59.849Z,0.60
2023-04-30T16:17:30.133Z,0.82
2023-04-30T16:19:58.240Z,0.80
2023-04-30T16:22:27.347Z,0.70
2023-04-30T16:24:55.420Z,0.90
2023-04-30T16:27:25.404Z,0.80
2023-04-30T16:29:54.385Z,0.70
2023-04-30T16:32:22.329Z,0.60
2023-04-30T16:34:50.317Z,0.70
2023-04-30T16:37:18.530Z,0.70
2023-04-30T16:39:46.568Z,0.80
2023-04-30T16:42:14.533Z,0.82
2023-04-30T16:44:46.592Z,0.70
2023-04-30T16:47:14.462Z,0.68
2023-04-30T16:49:42.331Z,0.70
2023-04-30T16:52:10.263Z,0.80
2023-04-30T16:54:37.950Z,0.70
2023-04-30T16:57:05.967Z,0.90
2023-04-30T16:59:34.160Z,0.80
2023-04-30T17:02:03.910Z,0.80
2023-04-30T17:04:32.864Z,0.80
2023-04-30T17:07:03.814Z,0.70
2023-04-30T17:09:31.868Z,0.75
2023-04-30T17:12:00.162Z,0.70
2023-04-30T17:14:29.296Z,0.70
2023-04-30T17:16:57.658Z,0.60
2023-04-30T17:19:26.845Z,0.60
2023-04-30T17:21:55.065Z,0.70
2023-04-30T17:24:24.579Z,0.50
2023-04-30T17:26:52.742Z,0.60
2023-04-30T17:29:21.388Z,0.70
2023-04-30T17:31:49.373Z,0.60
2023-04-30T17:34:17.371Z,0.60
2023-04-30T17:36:46.735Z,0.68
2023-04-30T17:39:14.551Z,0.60
2023-04-30T17:41:43.251Z,0.60
2023-04-30T17:44:11.809Z,0.80
2023-04-30T17:46:41.944Z,0.77
2023-04-30T17:49:10.090Z,1.30
2023-04-30T17:51:37.885Z,0.77
2023-04-30T17:54:07.244Z,0.60
2023-04-30T17:56:37.198Z,0.80
2023-04-30T17:59:04.903Z,0.70
2023-04-30T18:01:33.978Z,0.60
2023-04-30T18:04:04.105Z,0.80
2023-04-30T18:06:32.318Z,0.80
2023-04-30T18:09:01.427Z,0.90
2023-04-30T18:11:30.803Z,0.90
2023-04-30T18:13:58.881Z,1.00
2023-04-30T18:16:26.967Z,0.90
2023-04-30T18:18:54.691Z,0.90
2023-04-30T18:21:22.692Z,0.70
2023-04-30T18:23:50.592Z,0.70
2023-04-30T18:26:23.812Z,0.70
2023-04-30T18:28:54.217Z,0.80
2023-04-30T18:31:22.884Z,0.80
2023-04-30T18:33:50.671Z,0.77
2023-04-30T18:36:18.703Z,0.80
2023-04-30T18:38:46.713Z,0.70
2023-04-30T18:41:14.816Z,0.80
2023-04-30T18:43:45.700Z,1.00
2023-04-30T18:46:15.403Z,0.90
2023-04-30T18:48:44.421Z,0.80
2023-04-30T18:51:12.207Z,0.90
2023-04-30T18:53:45.142Z,0.90
2023-04-30T18:56:14.483Z,1.10
2023-04-30T18:58:46.733Z,1.10
2023-04-30T19:01:16.700Z,1.10
2023-04-30T19:03:44.786Z,1.20
2023-04-30T19:06:12.628Z,1.30
2023-04-30T19:08:40.475Z,1.30
2023-04-30T19:11:11.390Z,1.70
2023-04-30T19:13:39.297Z,1.40
2023-04-30T19:16:07.843Z,1.27
2023-04-30T19:18:38.582Z,1.80
2023-04-30T19:21:07.220Z,2.87
2023-04-30T19:23:35.715Z,1.20
2023-04-30T19:26:03.937Z,3.00
2023-04-30T19:28:31.865Z,1.10
2023-04-30T19:30:59.793Z,2.17
2023-04-30T19:33:28.325Z,1.30
2023-04-30T19:35:57.700Z,1.40
2023-04-30T19:38:25.907Z,2.03
2023-04-30T19:40:55.421Z,1.30
2023-04-30T19:43:25.268Z,1.23
2023-04-30T19:45:59.284Z,1.30
2023-04-30T19:48:27.334Z,1.10
2023-04-30T19:51:01.240Z,1.33
2023-04-30T19:53:30.929Z,1.20
2023-04-30T19:56:00.061Z,1.30
2023-04-30T19:58:33.645Z,1.20
2023-04-30T20:01:02.877Z,1.33
2023-04-30T20:03:34.205Z,1.10
2023-04-30T20:06:05.952Z,1.10
2023-04-30T20:08:35.190Z,1.10
2023-04-30T20:11:08.598Z,1.10
2023-04-30T20:13:36.651Z,1.00
2023-04-30T20:16:09.676Z,1.27
2023-04-30T20:18:38.618Z,1.17
2023-04-30T20:21:12.923Z,1.20
2023-04-30T20:23:49.313Z,1.30
2023-04-30T20:26:22.818Z,1.50
2023-04-30T20:28:54.922Z,1.37
2023-04-30T20:31:31.133Z,1.23
2023-04-30T20:34:03.838Z,1.20
2023-04-30T20:36:38.940Z,1.10
2023-04-30T20:39:19.106Z,1.00
2023-04-30T20:41:49.898Z,0.97
2023-04-30T20:44:20.186Z,1.10
2023-04-30T20:46:49.053Z,0.87
2023-04-30T20:49:20.981Z,1.03
2023-04-30T20:52:04.407Z,0.90
2023-04-30T20:54:41.729Z,0.97
2023-04-30T20:57:13.480Z,1.10
2023-04-30T20:59:47.395Z,0.90
2023-04-30T21:02:15.674Z,0.90
2023-04-30T21:04:48.394Z,0.90
2023-04-30T21:07:17.769Z,0.77
2023-04-30T21:09:48.464Z,0.90
2023-04-30T21:12:18.846Z,0.80
2023-04-30T21:14:48.778Z,0.90
2023-04-30T21:17:17.075Z,1.00
2023-04-30T21:19:47.222Z,0.90
2023-04-30T21:22:16.132Z,0.93
2023-04-30T21:24:44.080Z,1.10
2023-04-30T21:27:13.845Z,1.17
2023-04-30T21:29:44.799Z,0.93
2023-04-30T21:32:12.757Z,1.27
2023-04-30T21:34:40.503Z,1.30
2023-04-30T21:37:08.916Z,1.10
2023-04-30T21:39:37.701Z,1.10
2023-04-30T21:42:05.812Z,1.50
2023-04-30T21:44:36.403Z,1.50
2023-04-30T21:47:04.782Z,1.50
2023-04-30T21:49:36.666Z,1.47
2023-04-30T21:52:08.155Z,1.93
2023-04-30T21:54:37.589Z,1.77
2023-04-30T21:57:08.591Z,1.63
2023-04-30T21:59:43.121Z,1.70
2023-04-30T22:02:22.910Z,1.80
2023-04-30T22:04:55.462Z,1.63
2023-04-30T22:07:34.028Z,1.93
2023-04-30T22:10:06.325Z,2.10
2023-04-30T22:12:35.526Z,1.83
2023-04-30T22:15:07.022Z,1.80
2023-04-30T22:17:35.106Z,1.93
2023-04-30T22:20:08.889Z,1.40
2023-04-30T22:22:37.918Z,1.63
2023-04-30T22:25:06.771Z,1.30
2023-04-30T22:27:35.881Z,1.53
2023-04-30T22:30:07.864Z,1.40
2023-04-30T22:32:38.134Z,1.60
2023-04-30T22:35:10.378Z,1.67
2023-04-30T22:37:39.270Z,1.50
2023-04-30T22:40:08.258Z,1.40
2023-04-30T22:42:36.763Z,1.10
2023-04-30T22:45:07.605Z,1.70
2023-04-30T22:47:35.791Z,1.10
2023-04-30T22:50:04.841Z,1.30
2023-04-30T22:52:33.745Z,1.23
2023-04-30T22:55:02.980Z,1.30
2023-04-30T22:57:30.896Z,1.30
2023-04-30T22:59:59.329Z,1.03
2023-04-30T23:02:29.123Z,1.20
2023-04-30T23:04:56.951Z,1.30
2023-04-30T23:07:24.812Z,1.20
2023-04-30T23:09:52.558Z,1.20
2023-04-30T23:12:20.559Z,1.33
2023-04-30T23:14:49.357Z,1.10
2023-04-30T23:17:20.968Z,1.33
2023-04-30T23:19:50.324Z,1.10
2023-04-30T23:22:19.432Z,1.57
2023-04-30T23:24:47.555Z,1.37
2023-04-30T23:27:15.390Z,1.50
2023-04-30T23:29:46.780Z,1.87
2023-04-30T23:32:14.454Z,1.43
2023-04-30T23:34:42.240Z,1.27
2023-04-30T23:37:11.601Z,1.00
2023-04-30T23:39:39.336Z,1.60
2023-04-30T23:42:10.570Z,1.30
2023-04-30T23:44:38.367Z,1.30
2023-04-30T23:47:07.438Z,1.40
2023-04-30T23:49:35.798Z,1.30
2023-04-30T23:52:03.495Z,1.17
2023-04-30T23:54:32.864Z,1.20
2023-04-30T23:57:02.054Z,1.43
2023-04-30T23:59:31.023Z,1.20
